METAR Data
IDs: Format: Raw Decoded Include TAF

Data at: 1501 UTC 21 Apr 2021

PTRO 211450Z 35003KT 14SM BKN016 BKN300 25/23 A2985